Oshkosh, NE (69154)

9:38 PM MDT on October 24, 2014 (GMT -0600)
West end of Town (K0RRL) | Change Station
CLOSE
Current Station
Personal Weather Station
Location: Oshkosh, NE
Elevation: 3394 ft
Nearby Weather Stations

Elev 3394 ft 41.41 °N, 102.36 °W | Updated 42 seconds ago

Clear
Clear
45.3 °F
Feels Like 45 °F
N
0.0
Wind Variable Wind from NW
Gusts 0.0 mph

Today
High -- | Low -- °F
--% Chance of Precip.
Yesterday
High -- | Low -- °F
Precip. -- in
7:11 AM 5:54 PM
New Moon, 2% visible
Pressure 30.07 in
Visibility 10.0 miles
Clouds Clear
Windchill 45 °F
Dew Point 32 °F
Humidity 59%
Rainfall 0.00 in
Snow Depth Not available.
UV 0 out of 12
Pollen 2.70 out of 12
Air Quality Not available.
Flu Activity Sporadic
METAR KOGA 250315Z AUTO 00000KT 10SM CLR 08/02 A3007 RMK AO2 T00750021

More Conditions Fewer Conditions

Pressure 30.07 in
Visibility 10.0 miles
Clouds Clear
Windchill 45 °F
Dew Point 32 °F
Humidity 59%
Rainfall 0.00 in
Snow Depth Not available.
UV 0 out of 12
Pollen 2.70 out of 12
Air Quality Not available.
Flu Activity Sporadic
METAR KOGA 250315Z AUTO 00000KT 10SM CLR 08/02 A3007 RMK AO2 T00750021

More Conditions Fewer Conditions

10-Day Weather Forecast

Almanac

Astronomy

Oct. 24, 2014 Rise Set
Actual Time 7:11 AM MDT 5:54 PM MDT
Civil Twilight 6:43 AM MDT 6:23 PM MDT
Nautical Twilight 6:10 AM MDT 6:55 PM MDT
Astronomical Twilight 5:38 AM MDT 7:27 PM MDT
Moon 7:53 AM MDT (10/24) 6:35 PM MDT (10/24)
Length of Visible Light 11h 39m
Length of Day
10h 43m
Tomorrow will be 2m 34s shorter.
New Moon, 2% of the Moon is Illuminated
Today
New Moon
Oct 30
First Quarter
Nov 6
Full
Nov 14
Last Quarter
Nov 22
New

Today's Extremes

State Highs State Lows

Community

WunderPhotos

Upload Photos

1,764,771 photos uploaded!

Nearby

Snow Depth

Station Depth Elevation
No new snow has been reported.

Earthquake Activity

City Distance Mag. Time & Date
No recent earthquake activity has been reported nearby.
Minimum magnitude displayed is 2.5.

Coastal Water Temperatures

Place Temperature
No Stations Reporting

Nearby Weather Stations